Aviation Digital Data Service (ADDS)

Output produced by METARs form (2351 UTC 22 October 2014)
found at http://www.aviationweather.gov/adds/metars/
 
KDFW 222320Z 2300/2406 13007KT P6SM SCT050 BKN120 BKN200